sensor_id;sensor_type;location;lat;lon;timestamp;temperature;humidity
72380;SHT30;60354;47.798;12.472;2022-08-19T00:01:29;19.75;78.51
72380;SHT30;60354;47.798;12.472;2022-08-19T00:04:00;19.80;78.26
72380;SHT30;60354;47.798;12.472;2022-08-19T00:06:27;19.87;77.58
72380;SHT30;60354;47.798;12.472;2022-08-19T00:08:53;19.69;78.44
72380;SHT30;60354;47.798;12.472;2022-08-19T00:11:19;19.48;79.69
72380;SHT30;60354;47.798;12.472;2022-08-19T00:13:45;19.42;79.50
72380;SHT30;60354;47.798;12.472;2022-08-19T00:16:14;19.55;79.34
72380;SHT30;60354;47.798;12.472;2022-08-19T00:18:40;19.58;78.76
72380;SHT30;60354;47.798;12.472;2022-08-19T00:21:06;19.65;78.56
72380;SHT30;60354;47.798;12.472;2022-08-19T00:23:35;19.70;78.86
72380;SHT30;60354;47.798;12.472;2022-08-19T00:26:05;19.61;79.02
72380;SHT30;60354;47.798;12.472;2022-08-19T00:28:31;19.51;79.55
72380;SHT30;60354;47.798;12.472;2022-08-19T00:30:59;19.34;80.21
72380;SHT30;60354;47.798;12.472;2022-08-19T00:33:25;19.46;79.79
72380;SHT30;60354;47.798;12.472;2022-08-19T00:35:51;19.46;79.39
72380;SHT30;60354;47.798;12.472;2022-08-19T00:38:16;19.44;79.74
72380;SHT30;60354;47.798;12.472;2022-08-19T00:40:43;19.41;79.68
72380;SHT30;60354;47.798;12.472;2022-08-19T00:43:12;19.51;79.85
72380;SHT30;60354;47.798;12.472;2022-08-19T00:45:39;19.52;79.58
72380;SHT30;60354;47.798;12.472;2022-08-19T00:48:08;19.62;79.32
72380;SHT30;60354;47.798;12.472;2022-08-19T00:50:34;19.68;79.26
72380;SHT30;60354;47.798;12.472;2022-08-19T00:53:01;19.69;78.81
72380;SHT30;60354;47.798;12.472;2022-08-19T00:55:30;19.54;79.64
72380;SHT30;60354;47.798;12.472;2022-08-19T00:58:00;19.31;80.62
72380;SHT30;60354;47.798;12.472;2022-08-19T01:00:27;19.27;80.99
72380;SHT30;60354;47.798;12.472;2022-08-19T01:02:54;19.21;81.28
72380;SHT30;60354;47.798;12.472;2022-08-19T01:05:22;19.35;80.90
72380;SHT30;60354;47.798;12.472;2022-08-19T01:07:49;19.45;80.93
72380;SHT30;60354;47.798;12.472;2022-08-19T01:10:20;19.55;80.53
72380;SHT30;60354;47.798;12.472;2022-08-19T01:12:48;19.45;81.39
72380;SHT30;60354;47.798;12.472;2022-08-19T01:15:16;19.34;81.30
72380;SHT30;60354;47.798;12.472;2022-08-19T01:17:43;19.38;80.88
72380;SHT30;60354;47.798;12.472;2022-08-19T01:20:17;19.41;80.27
72380;SHT30;60354;47.798;12.472;2022-08-19T01:22:47;19.45;81.22
72380;SHT30;60354;47.798;12.472;2022-08-19T01:25:15;19.52;80.74
72380;SHT30;60354;47.798;12.472;2022-08-19T01:27:44;19.63;80.11
72380;SHT30;60354;47.798;12.472;2022-08-19T01:30:24;19.69;80.32
72380;SHT30;60354;47.798;12.472;2022-08-19T01:32:51;19.77;80.09
72380;SHT30;60354;47.798;12.472;2022-08-19T01:35:17;19.83;79.65
72380;SHT30;60354;47.798;12.472;2022-08-19T01:37:57;19.83;79.46
72380;SHT30;60354;47.798;12.472;2022-08-19T01:40:26;19.82;79.40
72380;SHT30;60354;47.798;12.472;2022-08-19T01:42:52;19.83;79.50
72380;SHT30;60354;47.798;12.472;2022-08-19T01:45:21;19.86;78.64
72380;SHT30;60354;47.798;12.472;2022-08-19T01:47:47;19.92;79.32
72380;SHT30;60354;47.798;12.472;2022-08-19T01:50:13;19.99;79.10
72380;SHT30;60354;47.798;12.472;2022-08-19T01:52:40;20.03;79.04
72380;SHT30;60354;47.798;12.472;2022-08-19T01:55:09;20.05;77.57
72380;SHT30;60354;47.798;12.472;2022-08-19T01:57:35;19.96;78.42
72380;SHT30;60354;47.798;12.472;2022-08-19T02:00:01;19.86;78.51
72380;SHT30;60354;47.798;12.472;2022-08-19T02:02:36;19.89;78.84
72380;SHT30;60354;47.798;12.472;2022-08-19T02:05:03;19.93;78.63
72380;SHT30;60354;47.798;12.472;2022-08-19T02:07:29;19.87;78.94
72380;SHT30;60354;47.798;12.472;2022-08-19T02:09:54;19.89;78.94
72380;SHT30;60354;47.798;12.472;2022-08-19T02:12:21;19.93;78.83
72380;SHT30;60354;47.798;12.472;2022-08-19T02:14:47;19.93;78.53
72380;SHT30;60354;47.798;12.472;2022-08-19T02:17:13;19.87;78.57
72380;SHT30;60354;47.798;12.472;2022-08-19T02:19:39;19.92;78.94
72380;SHT30;60354;47.798;12.472;2022-08-19T02:22:04;19.99;79.17
72380;SHT30;60354;47.798;12.472;2022-08-19T02:24:30;20.05;78.66
72380;SHT30;60354;47.798;12.472;2022-08-19T02:26:55;20.01;79.06
72380;SHT30;60354;47.798;12.472;2022-08-19T02:29:21;20.03;79.01
72380;SHT30;60354;47.798;12.472;2022-08-19T02:31:47;20.00;79.02
72380;SHT30;60354;47.798;12.472;2022-08-19T02:34:13;19.99;79.06
72380;SHT30;60354;47.798;12.472;2022-08-19T02:36:38;20.01;78.36
72380;SHT30;60354;47.798;12.472;2022-08-19T02:39:04;20.03;78.37
72380;SHT30;60354;47.798;12.472;2022-08-19T02:41:32;19.99;78.34
72380;SHT30;60354;47.798;12.472;2022-08-19T02:43:59;19.94;78.03
72380;SHT30;60354;47.798;12.472;2022-08-19T02:46:28;19.76;79.56
72380;SHT30;60354;47.798;12.472;2022-08-19T02:48:57;19.75;79.41
72380;SHT30;60354;47.798;12.472;2022-08-19T02:51:33;19.72;79.55
72380;SHT30;60354;47.798;12.472;2022-08-19T02:53:58;19.77;78.77
72380;SHT30;60354;47.798;12.472;2022-08-19T02:56:26;19.76;79.21
72380;SHT30;60354;47.798;12.472;2022-08-19T02:58:53;19.83;79.18
72380;SHT30;60354;47.798;12.472;2022-08-19T03:01:24;19.87;78.64
72380;SHT30;60354;47.798;12.472;2022-08-19T03:03:50;19.92;78.88
72380;SHT30;60354;47.798;12.472;2022-08-19T03:06:16;19.97;78.65
72380;SHT30;60354;47.798;12.472;2022-08-19T03:08:44;20.00;78.58
72380;SHT30;60354;47.798;12.472;2022-08-19T03:13:50;19.87;78.91
72380;SHT30;60354;47.798;12.472;2022-08-19T03:16:20;19.86;78.19
72380;SHT30;60354;47.798;12.472;2022-08-19T03:18:46;19.85;78.62
72380;SHT30;60354;47.798;12.472;2022-08-19T03:21:17;19.86;78.94
72380;SHT30;60354;47.798;12.472;2022-08-19T03:23:43;19.87;78.49
72380;SHT30;60354;47.798;12.472;2022-08-19T03:26:08;19.73;79.98
72380;SHT30;60354;47.798;12.472;2022-08-19T03:28:34;19.73;79.76
72380;SHT30;60354;47.798;12.472;2022-08-19T03:31:06;19.73;80.14
72380;SHT30;60354;47.798;12.472;2022-08-19T03:33:34;19.77;80.01
72380;SHT30;60354;47.798;12.472;2022-08-19T03:36:04;19.82;79.55
72380;SHT30;60354;47.798;12.472;2022-08-19T03:38:33;19.70;78.60
72380;SHT30;60354;47.798;12.472;2022-08-19T03:41:03;19.73;78.73
72380;SHT30;60354;47.798;12.472;2022-08-19T03:43:32;19.80;79.08
72380;SHT30;60354;47.798;12.472;2022-08-19T03:46:00;19.85;77.31
72380;SHT30;60354;47.798;12.472;2022-08-19T03:48:26;19.86;76.90
72380;SHT30;60354;47.798;12.472;2022-08-19T03:50:51;19.86;76.96
72380;SHT30;60354;47.798;12.472;2022-08-19T03:53:17;19.80;77.25
72380;SHT30;60354;47.798;12.472;2022-08-19T03:55:42;19.86;77.20
72380;SHT30;60354;47.798;12.472;2022-08-19T03:58:08;19.89;77.85
72380;SHT30;60354;47.798;12.472;2022-08-19T04:00:33;19.89;77.43
72380;SHT30;60354;47.798;12.472;2022-08-19T04:02:59;19.93;76.59
72380;SHT30;60354;47.798;12.472;2022-08-19T04:05:27;19.94;77.83
72380;SHT30;60354;47.798;12.472;2022-08-19T04:07:54;19.99;78.50
72380;SHT30;60354;47.798;12.472;2022-08-19T04:10:22;19.85;77.67
72380;SHT30;60354;47.798;12.472;2022-08-19T04:12:49;19.82;78.20
72380;SHT30;60354;47.798;12.472;2022-08-19T04:15:15;19.77;78.76
72380;SHT30;60354;47.798;12.472;2022-08-19T04:17:40;19.73;79.60
72380;SHT30;60354;47.798;12.472;2022-08-19T04:20:06;19.76;79.44
72380;SHT30;60354;47.798;12.472;2022-08-19T04:22:32;19.58;79.38
72380;SHT30;60354;47.798;12.472;2022-08-19T04:24:57;19.52;80.45
72380;SHT30;60354;47.798;12.472;2022-08-19T04:27:23;19.48;81.37
72380;SHT30;60354;47.798;12.472;2022-08-19T04:29:48;19.42;81.73
72380;SHT30;60354;47.798;12.472;2022-08-19T04:32:14;19.49;81.67
72380;SHT30;60354;47.798;12.472;2022-08-19T04:34:40;19.51;81.55
72380;SHT30;60354;47.798;12.472;2022-08-19T04:37:08;19.54;80.20
72380;SHT30;60354;47.798;12.472;2022-08-19T04:39:38;19.54;80.76
72380;SHT30;60354;47.798;12.472;2022-08-19T04:42:23;19.48;79.74
72380;SHT30;60354;47.798;12.472;2022-08-19T04:45:05;19.56;80.12
72380;SHT30;60354;47.798;12.472;2022-08-19T04:47:31;19.59;81.42
72380;SHT30;60354;47.798;12.472;2022-08-19T04:49:58;19.61;81.94
72380;SHT30;60354;47.798;12.472;2022-08-19T04:52:24;19.58;81.22
72380;SHT30;60354;47.798;12.472;2022-08-19T04:54:49;19.38;81.69
72380;SHT30;60354;47.798;12.472;2022-08-19T04:57:15;19.28;82.21
72380;SHT30;60354;47.798;12.472;2022-08-19T04:59:40;19.22;82.60
72380;SHT30;60354;47.798;12.472;2022-08-19T05:02:08;19.25;83.10
72380;SHT30;60354;47.798;12.472;2022-08-19T05:04:33;19.29;82.76
72380;SHT30;60354;47.798;12.472;2022-08-19T05:07:00;19.36;81.80
72380;SHT30;60354;47.798;12.472;2022-08-19T05:09:26;19.45;82.39
72380;SHT30;60354;47.798;12.472;2022-08-19T05:11:52;19.55;82.95
72380;SHT30;60354;47.798;12.472;2022-08-19T05:14:18;19.62;83.40
72380;SHT30;60354;47.798;12.472;2022-08-19T05:16:46;19.56;81.92
72380;SHT30;60354;47.798;12.472;2022-08-19T05:19:11;19.62;81.32
72380;SHT30;60354;47.798;12.472;2022-08-19T05:21:55;19.63;82.78
72380;SHT30;60354;47.798;12.472;2022-08-19T05:24:40;19.65;81.96
72380;SHT30;60354;47.798;12.472;2022-08-19T05:27:05;19.69;82.36
72380;SHT30;60354;47.798;12.472;2022-08-19T05:29:32;19.72;82.36
72380;SHT30;60354;47.798;12.472;2022-08-19T05:32:00;19.66;82.47
72380;SHT30;60354;47.798;12.472;2022-08-19T05:34:26;19.61;81.53
72380;SHT30;60354;47.798;12.472;2022-08-19T05:36:57;19.59;82.10
72380;SHT30;60354;47.798;12.472;2022-08-19T05:39:28;19.59;82.95
72380;SHT30;60354;47.798;12.472;2022-08-19T05:42:00;19.61;82.26
72380;SHT30;60354;47.798;12.472;2022-08-19T05:44:28;19.61;83.10
72380;SHT30;60354;47.798;12.472;2022-08-19T05:47:03;19.65;83.75
72380;SHT30;60354;47.798;12.472;2022-08-19T05:49:32;19.62;83.28
72380;SHT30;60354;47.798;12.472;2022-08-19T05:51:57;19.69;82.86
72380;SHT30;60354;47.798;12.472;2022-08-19T05:54:25;19.66;82.86
72380;SHT30;60354;47.798;12.472;2022-08-19T05:56:52;19.59;85.00
72380;SHT30;60354;47.798;12.472;2022-08-19T05:59:19;19.44;81.30
72380;SHT30;60354;47.798;12.472;2022-08-19T06:01:48;19.28;84.48
72380;SHT30;60354;47.798;12.472;2022-08-19T06:04:17;19.22;84.74
72380;SHT30;60354;47.798;12.472;2022-08-19T06:06:51;19.21;84.28
72380;SHT30;60354;47.798;12.472;2022-08-19T06:09:17;19.31;84.99
72380;SHT30;60354;47.798;12.472;2022-08-19T06:14:18;19.31;84.66
72380;SHT30;60354;47.798;12.472;2022-08-19T06:16:46;19.32;85.16
72380;SHT30;60354;47.798;12.472;2022-08-19T06:19:14;19.34;84.80
72380;SHT30;60354;47.798;12.472;2022-08-19T06:21:44;19.22;83.91
72380;SHT30;60354;47.798;12.472;2022-08-19T06:24:12;19.21;84.25
72380;SHT30;60354;47.798;12.472;2022-08-19T06:26:40;19.14;83.98
72380;SHT30;60354;47.798;12.472;2022-08-19T06:29:08;19.19;84.11
72380;SHT30;60354;47.798;12.472;2022-08-19T06:31:35;19.08;84.42
72380;SHT30;60354;47.798;12.472;2022-08-19T06:34:04;18.98;85.24
72380;SHT30;60354;47.798;12.472;2022-08-19T06:36:33;19.01;85.78
72380;SHT30;60354;47.798;12.472;2022-08-19T06:39:04;19.10;85.71
72380;SHT30;60354;47.798;12.472;2022-08-19T06:41:34;19.10;84.68
72380;SHT30;60354;47.798;12.472;2022-08-19T06:44:00;19.01;84.41
72380;SHT30;60354;47.798;12.472;2022-08-19T06:46:26;19.14;84.80
72380;SHT30;60354;47.798;12.472;2022-08-19T06:48:52;19.21;84.73
72380;SHT30;60354;47.798;12.472;2022-08-19T06:51:18;19.24;85.31
72380;SHT30;60354;47.798;12.472;2022-08-19T06:53:46;19.24;83.47
72380;SHT30;60354;47.798;12.472;2022-08-19T06:56:14;19.25;83.88
72380;SHT30;60354;47.798;12.472;2022-08-19T06:58:39;19.35;85.39
72380;SHT30;60354;47.798;12.472;2022-08-19T07:01:06;19.39;84.00
72380;SHT30;60354;47.798;12.472;2022-08-19T07:03:34;19.62;82.42
72380;SHT30;60354;47.798;12.472;2022-08-19T07:06:05;19.65;83.73
72380;SHT30;60354;47.798;12.472;2022-08-19T07:08:31;19.72;81.86
72380;SHT30;60354;47.798;12.472;2022-08-19T07:10:57;19.76;82.31
72380;SHT30;60354;47.798;12.472;2022-08-19T07:13:22;19.82;82.52
72380;SHT30;60354;47.798;12.472;2022-08-19T07:15:49;19.80;81.82
72380;SHT30;60354;47.798;12.472;2022-08-19T07:18:19;19.79;82.44
72380;SHT30;60354;47.798;12.472;2022-08-19T07:20:46;19.72;81.79
72380;SHT30;60354;47.798;12.472;2022-08-19T07:23:12;19.83;82.23
72380;SHT30;60354;47.798;12.472;2022-08-19T07:25:38;19.83;81.39
72380;SHT30;60354;47.798;12.472;2022-08-19T07:28:04;19.93;81.44
72380;SHT30;60354;47.798;12.472;2022-08-19T07:30:29;20.05;80.67
72380;SHT30;60354;47.798;12.472;2022-08-19T07:32:55;20.09;81.66
72380;SHT30;60354;47.798;12.472;2022-08-19T07:35:22;20.12;80.55
72380;SHT30;60354;47.798;12.472;2022-08-19T07:37:49;20.03;79.22
72380;SHT30;60354;47.798;12.472;2022-08-19T07:40:15;20.14;77.98
72380;SHT30;60354;47.798;12.472;2022-08-19T07:42:41;20.06;78.41
72380;SHT30;60354;47.798;12.472;2022-08-19T07:45:07;20.09;79.80
72380;SHT30;60354;47.798;12.472;2022-08-19T07:47:33;20.14;78.39
72380;SHT30;60354;47.798;12.472;2022-08-19T07:52:32;19.97;80.85
72380;SHT30;60354;47.798;12.472;2022-08-19T07:54:58;20.06;79.02
72380;SHT30;60354;47.798;12.472;2022-08-19T07:57:28;20.17;81.75
72380;SHT30;60354;47.798;12.472;2022-08-19T07:59:53;20.09;80.78
72380;SHT30;60354;47.798;12.472;2022-08-19T08:02:19;20.12;82.83
72380;SHT30;60354;47.798;12.472;2022-08-19T08:04:45;20.23;80.43
72380;SHT30;60354;47.798;12.472;2022-08-19T08:07:28;20.34;80.61
72380;SHT30;60354;47.798;12.472;2022-08-19T08:10:12;20.34;79.92
72380;SHT30;60354;47.798;12.472;2022-08-19T08:12:39;20.14;80.94
72380;SHT30;60354;47.798;12.472;2022-08-19T08:15:12;20.28;80.82
72380;SHT30;60354;47.798;12.472;2022-08-19T08:17:42;20.43;82.61
72380;SHT30;60354;47.798;12.472;2022-08-19T08:20:09;20.59;80.17
72380;SHT30;60354;47.798;12.472;2022-08-19T08:22:35;20.43;79.30
72380;SHT30;60354;47.798;12.472;2022-08-19T08:25:21;20.59;79.58
72380;SHT30;60354;47.798;12.472;2022-08-19T08:27:49;20.67;81.75
72380;SHT30;60354;47.798;12.472;2022-08-19T08:30:23;20.74;78.74
72380;SHT30;60354;47.798;12.472;2022-08-19T08:32:50;20.84;79.94
72380;SHT30;60354;47.798;12.472;2022-08-19T08:35:22;21.08;79.92
72380;SHT30;60354;47.798;12.472;2022-08-19T08:37:50;21.22;80.51
72380;SHT30;60354;47.798;12.472;2022-08-19T08:40:26;21.13;78.57
72380;SHT30;60354;47.798;12.472;2022-08-19T08:43:27;21.10;77.15
72380;SHT30;60354;47.798;12.472;2022-08-19T08:46:00;21.08;78.52
72380;SHT30;60354;47.798;12.472;2022-08-19T08:48:37;20.99;78.07
72380;SHT30;60354;47.798;12.472;2022-08-19T08:51:10;20.94;78.85
72380;SHT30;60354;47.798;12.472;2022-08-19T08:53:36;20.89;79.54
72380;SHT30;60354;47.798;12.472;2022-08-19T08:56:06;20.95;79.30
72380;SHT30;60354;47.798;12.472;2022-08-19T08:58:42;20.84;79.66
72380;SHT30;60354;47.798;12.472;2022-08-19T09:01:11;21.00;79.22
72380;SHT30;60354;47.798;12.472;2022-08-19T09:03:39;20.95;78.07
72380;SHT30;60354;47.798;12.472;2022-08-19T09:11:19;21.27;78.41
72380;SHT30;60354;47.798;12.472;2022-08-19T09:16:29;20.99;76.73
72380;SHT30;60354;47.798;12.472;2022-08-19T09:19:00;21.12;76.95
72380;SHT30;60354;47.798;12.472;2022-08-19T09:21:26;21.32;75.95
72380;SHT30;60354;47.798;12.472;2022-08-19T09:23:53;21.46;75.63
72380;SHT30;60354;47.798;12.472;2022-08-19T09:26:20;21.58;75.77
72380;SHT30;60354;47.798;12.472;2022-08-19T09:28:48;21.80;76.58
72380;SHT30;60354;47.798;12.472;2022-08-19T09:31:17;21.86;75.76
72380;SHT30;60354;47.798;12.472;2022-08-19T09:33:44;22.35;74.58
72380;SHT30;60354;47.798;12.472;2022-08-19T09:36:12;22.39;73.65
72380;SHT30;60354;47.798;12.472;2022-08-19T09:38:39;22.52;72.85
72380;SHT30;60354;47.798;12.472;2022-08-19T09:41:14;22.42;72.91
72380;SHT30;60354;47.798;12.472;2022-08-19T09:43:41;22.42;73.36
72380;SHT30;60354;47.798;12.472;2022-08-19T09:46:08;22.48;74.95
72380;SHT30;60354;47.798;12.472;2022-08-19T09:48:41;22.46;72.37
72380;SHT30;60354;47.798;12.472;2022-08-19T09:51:14;22.31;72.47
72380;SHT30;60354;47.798;12.472;2022-08-19T09:53:42;22.41;75.23
72380;SHT30;60354;47.798;12.472;2022-08-19T09:56:09;22.34;74.90
72380;SHT30;60354;47.798;12.472;2022-08-19T09:58:35;22.07;73.91
72380;SHT30;60354;47.798;12.472;2022-08-19T10:01:02;22.08;74.05
72380;SHT30;60354;47.798;12.472;2022-08-19T10:03:29;21.86;75.14
72380;SHT30;60354;47.798;12.472;2022-08-19T10:05:56;21.60;76.24
72380;SHT30;60354;47.798;12.472;2022-08-19T10:08:25;21.56;75.59
72380;SHT30;60354;47.798;12.472;2022-08-19T10:10:51;21.53;76.28
72380;SHT30;60354;47.798;12.472;2022-08-19T10:13:20;21.43;76.69
72380;SHT30;60354;47.798;12.472;2022-08-19T10:15:51;21.53;76.26
72380;SHT30;60354;47.798;12.472;2022-08-19T10:18:19;21.54;75.92
72380;SHT30;60354;47.798;12.472;2022-08-19T10:20:49;21.63;75.81
72380;SHT30;60354;47.798;12.472;2022-08-19T10:23:16;21.57;75.73
72380;SHT30;60354;47.798;12.472;2022-08-19T10:25:42;21.53;76.05
72380;SHT30;60354;47.798;12.472;2022-08-19T10:28:08;21.71;75.95
72380;SHT30;60354;47.798;12.472;2022-08-19T10:30:38;21.78;75.54
72380;SHT30;60354;47.798;12.472;2022-08-19T10:33:05;21.77;75.14
72380;SHT30;60354;47.798;12.472;2022-08-19T10:35:31;21.93;75.33
72380;SHT30;60354;47.798;12.472;2022-08-19T10:37:56;22.17;74.69
72380;SHT30;60354;47.798;12.472;2022-08-19T10:40:28;22.12;72.66
72380;SHT30;60354;47.798;12.472;2022-08-19T10:42:54;22.24;71.79
72380;SHT30;60354;47.798;12.472;2022-08-19T10:45:21;22.36;72.05
72380;SHT30;60354;47.798;12.472;2022-08-19T10:47:48;22.24;72.44
72380;SHT30;60354;47.798;12.472;2022-08-19T10:50:14;22.45;72.91
72380;SHT30;60354;47.798;12.472;2022-08-19T10:53:04;22.80;73.62
72380;SHT30;60354;47.798;12.472;2022-08-19T10:55:29;23.20;73.00
72380;SHT30;60354;47.798;12.472;2022-08-19T10:58:16;23.37;70.68
72380;SHT30;60354;47.798;12.472;2022-08-19T11:00:43;23.18;69.36
72380;SHT30;60354;47.798;12.472;2022-08-19T11:03:09;22.96;70.17
72380;SHT30;60354;47.798;12.472;2022-08-19T11:05:35;22.90;71.00
72380;SHT30;60354;47.798;12.472;2022-08-19T11:08:02;22.89;70.75
72380;SHT30;60354;47.798;12.472;2022-08-19T11:10:28;22.83;71.27
72380;SHT30;60354;47.798;12.472;2022-08-19T11:12:53;22.69;71.65
72380;SHT30;60354;47.798;12.472;2022-08-19T11:15:19;22.92;71.39
72380;SHT30;60354;47.798;12.472;2022-08-19T11:17:45;22.69;71.90
72380;SHT30;60354;47.798;12.472;2022-08-19T11:20:11;22.85;71.21
72380;SHT30;60354;47.798;12.472;2022-08-19T11:22:37;22.82;71.44
72380;SHT30;60354;47.798;12.472;2022-08-19T11:25:04;22.63;71.89
72380;SHT30;60354;47.798;12.472;2022-08-19T11:27:29;22.58;72.32
72380;SHT30;60354;47.798;12.472;2022-08-19T11:29:55;22.66;72.21
72380;SHT30;60354;47.798;12.472;2022-08-19T11:32:21;22.80;71.55
72380;SHT30;60354;47.798;12.472;2022-08-19T11:34:46;23.03;71.09
72380;SHT30;60354;47.798;12.472;2022-08-19T11:37:12;23.14;71.43
72380;SHT30;60354;47.798;12.472;2022-08-19T11:39:37;23.38;71.98
72380;SHT30;60354;47.798;12.472;2022-08-19T11:55:42;23.62;66.57
72380;SHT30;60354;47.798;12.472;2022-08-19T11:58:08;23.31;66.56
72380;SHT30;60354;47.798;12.472;2022-08-19T12:00:34;23.48;67.55
72380;SHT30;60354;47.798;12.472;2022-08-19T12:03:02;23.61;67.16
72380;SHT30;60354;47.798;12.472;2022-08-19T12:05:27;23.48;67.20
72380;SHT30;60354;47.798;12.472;2022-08-19T12:07:53;23.37;67.97
72380;SHT30;60354;47.798;12.472;2022-08-19T12:10:20;23.43;68.34
72380;SHT30;60354;47.798;12.472;2022-08-19T12:12:46;23.38;68.98
72380;SHT30;60354;47.798;12.472;2022-08-19T12:15:11;23.48;69.53
72380;SHT30;60354;47.798;12.472;2022-08-19T12:17:37;23.53;68.92
72380;SHT30;60354;47.798;12.472;2022-08-19T12:20:04;23.67;68.05
72380;SHT30;60354;47.798;12.472;2022-08-19T12:22:30;23.71;67.16
72380;SHT30;60354;47.798;12.472;2022-08-19T12:24:56;23.81;67.06
72380;SHT30;60354;47.798;12.472;2022-08-19T12:27:21;24.27;65.90
72380;SHT30;60354;47.798;12.472;2022-08-19T12:29:47;24.35;64.45
72380;SHT30;60354;47.798;12.472;2022-08-19T12:32:14;24.71;63.68
72380;SHT30;60354;47.798;12.472;2022-08-19T12:34:40;24.44;63.43
72380;SHT30;60354;47.798;12.472;2022-08-19T12:37:07;24.47;64.13
72380;SHT30;60354;47.798;12.472;2022-08-19T12:39:40;24.29;61.68
72380;SHT30;60354;47.798;12.472;2022-08-19T12:42:07;24.15;62.24
72380;SHT30;60354;47.798;12.472;2022-08-19T12:44:34;24.09;62.67
72380;SHT30;60354;47.798;12.472;2022-08-19T12:47:00;24.16;63.12
72380;SHT30;60354;47.798;12.472;2022-08-19T12:49:27;24.23;64.45
72380;SHT30;60354;47.798;12.472;2022-08-19T12:51:53;24.37;65.17
72380;SHT30;60354;47.798;12.472;2022-08-19T12:54:18;24.41;64.66
72380;SHT30;60354;47.798;12.472;2022-08-19T12:56:45;24.33;66.34
72380;SHT30;60354;47.798;12.472;2022-08-19T12:59:10;24.30;64.97
72380;SHT30;60354;47.798;12.472;2022-08-19T13:05:00;24.22;63.40
72380;SHT30;60354;47.798;12.472;2022-08-19T13:07:26;24.06;62.89
72380;SHT30;60354;47.798;12.472;2022-08-19T13:09:52;24.23;63.11
72380;SHT30;60354;47.798;12.472;2022-08-19T13:12:18;24.30;62.55
72380;SHT30;60354;47.798;12.472;2022-08-19T13:14:45;24.02;63.97
72380;SHT30;60354;47.798;12.472;2022-08-19T13:17:15;23.77;65.18
72380;SHT30;60354;47.798;12.472;2022-08-19T13:19:41;23.68;66.69
72380;SHT30;60354;47.798;12.472;2022-08-19T13:22:06;23.59;66.11
72380;SHT30;60354;47.798;12.472;2022-08-19T13:24:32;23.61;67.05
72380;SHT30;60354;47.798;12.472;2022-08-19T13:26:59;23.61;66.90
72380;SHT30;60354;47.798;12.472;2022-08-19T13:29:25;23.68;66.15
72380;SHT30;60354;47.798;12.472;2022-08-19T13:32:23;23.59;66.51
72380;SHT30;60354;47.798;12.472;2022-08-19T13:35:07;23.46;67.77
72380;SHT30;60354;47.798;12.472;2022-08-19T13:37:33;23.50;66.56
72380;SHT30;60354;47.798;12.472;2022-08-19T13:42:39;23.68;66.60
72380;SHT30;60354;47.798;12.472;2022-08-19T13:45:06;23.64;66.29
72380;SHT30;60354;47.798;12.472;2022-08-19T13:47:32;23.62;66.95
72380;SHT30;60354;47.798;12.472;2022-08-19T13:50:02;23.53;66.46
72380;SHT30;60354;47.798;12.472;2022-08-19T13:52:28;23.64;67.45
72380;SHT30;60354;47.798;12.472;2022-08-19T13:54:53;23.69;69.08
72380;SHT30;60354;47.798;12.472;2022-08-19T13:57:19;23.72;69.98
72380;SHT30;60354;47.798;12.472;2022-08-19T13:59:44;23.68;73.68
72380;SHT30;60354;47.798;12.472;2022-08-19T14:02:10;23.57;75.81
72380;SHT30;60354;47.798;12.472;2022-08-19T14:04:36;23.51;76.91
72380;SHT30;60354;47.798;12.472;2022-08-19T14:07:02;23.13;77.40
72380;SHT30;60354;47.798;12.472;2022-08-19T14:09:28;22.86;78.06
72380;SHT30;60354;47.798;12.472;2022-08-19T14:11:54;22.65;77.85
72380;SHT30;60354;47.798;12.472;2022-08-19T14:14:20;22.41;77.87
72380;SHT30;60354;47.798;12.472;2022-08-19T14:16:47;22.48;77.96
72380;SHT30;60354;47.798;12.472;2022-08-19T14:19:13;22.32;78.51
72380;SHT30;60354;47.798;12.472;2022-08-19T14:21:38;22.29;79.64
72380;SHT30;60354;47.798;12.472;2022-08-19T14:24:05;21.88;79.17
72380;SHT30;60354;47.798;12.472;2022-08-19T14:26:31;21.58;77.59
72380;SHT30;60354;47.798;12.472;2022-08-19T14:28:56;21.35;77.00
72380;SHT30;60354;47.798;12.472;2022-08-19T14:31:22;21.10;78.14
72380;SHT30;60354;47.798;12.472;2022-08-19T14:33:49;21.00;78.74
72380;SHT30;60354;47.798;12.472;2022-08-19T14:36:17;20.85;80.09
72380;SHT30;60354;47.798;12.472;2022-08-19T14:38:43;20.94;79.08
72380;SHT30;60354;47.798;12.472;2022-08-19T14:41:13;20.89;79.66
72380;SHT30;60354;47.798;12.472;2022-08-19T14:43:39;20.87;80.47
72380;SHT30;60354;47.798;12.472;2022-08-19T14:46:04;20.81;81.33
72380;SHT30;60354;47.798;12.472;2022-08-19T14:48:30;20.38;83.05
72380;SHT30;60354;47.798;12.472;2022-08-19T14:50:56;20.16;83.18
72380;SHT30;60354;47.798;12.472;2022-08-19T14:53:22;19.96;83.64
72380;SHT30;60354;47.798;12.472;2022-08-19T14:55:47;19.72;84.24
72380;SHT30;60354;47.798;12.472;2022-08-19T14:58:13;19.62;84.03
72380;SHT30;60354;47.798;12.472;2022-08-19T15:00:40;19.49;86.59
72380;SHT30;60354;47.798;12.472;2022-08-19T15:03:05;19.44;87.50
72380;SHT30;60354;47.798;12.472;2022-08-19T15:05:31;19.48;88.49
72380;SHT30;60354;47.798;12.472;2022-08-19T15:07:57;19.39;87.13
72380;SHT30;60354;47.798;12.472;2022-08-19T15:10:23;19.28;84.64
72380;SHT30;60354;47.798;12.472;2022-08-19T15:12:50;19.00;84.78
72380;SHT30;60354;47.798;12.472;2022-08-19T15:15:16;18.98;84.62
72380;SHT30;60354;47.798;12.472;2022-08-19T15:17:45;18.80;82.73
72380;SHT30;60354;47.798;12.472;2022-08-19T15:20:14;18.50;84.19
72380;SHT30;60354;47.798;12.472;2022-08-19T15:22:40;18.70;83.78
72380;SHT30;60354;47.798;12.472;2022-08-19T15:25:10;18.77;84.36
72380;SHT30;60354;47.798;12.472;2022-08-19T15:27:35;18.94;85.13
72380;SHT30;60354;47.798;12.472;2022-08-19T15:30:02;19.07;84.22
72380;SHT30;60354;47.798;12.472;2022-08-19T15:32:29;19.14;82.79
72380;SHT30;60354;47.798;12.472;2022-08-19T15:34:54;19.19;82.58
72380;SHT30;60354;47.798;12.472;2022-08-19T15:37:20;19.19;83.83
72380;SHT30;60354;47.798;12.472;2022-08-19T15:39:49;18.96;84.78
72380;SHT30;60354;47.798;12.472;2022-08-19T15:42:14;19.04;83.76
72380;SHT30;60354;47.798;12.472;2022-08-19T15:44:40;18.91;85.49
72380;SHT30;60354;47.798;12.472;2022-08-19T15:47:05;18.74;86.32
72380;SHT30;60354;47.798;12.472;2022-08-19T15:49:31;18.74;86.20
72380;SHT30;60354;47.798;12.472;2022-08-19T15:51:56;18.74;86.42
72380;SHT30;60354;47.798;12.472;2022-08-19T15:54:24;18.84;86.40